Time;durP1;ratioP1;P1;durP2;ratioP2;P2;SDS_P1;SDS_P2;PMS_P1;PMS_P2;Temp;Humidity;BMP_temperature;BMP_pressure;BME280_temperature;BME280_humidity;BME280_pressure;Samples;Min_cycle;Max_cycle;Signal;HPM_P1;HPM_P2
2023/05/30 00:01:20;;;;;;;5.65;3.65;;;;;;;;;;5000358;28;20060;-83
2023/05/30 00:03:46;;;;;;;6.47;3.90;;;;;;;;;;5003114;28;20116;-83
2023/05/30 00:06:16;;;;;;;6.97;4.05;;;;;;;;;;5004880;28;20424;-82
2023/05/30 00:08:42;;;;;;;6.15;3.70;;;;;;;;;;5011199;28;20038;-83
2023/05/30 00:11:09;;;;;;;9.13;3.80;;;;;;;;;;5011755;28;20026;-82
2023/05/30 00:13:35;;;;;;;5.95;3.90;;;;;;;;;;5010124;28;20034;-82
2023/05/30 00:16:03;;;;;;;6.03;3.70;;;;;;;;;;4997071;28;20527;-83
2023/05/30 00:18:34;;;;;;;6.15;3.83;;;;;;;;;;4999999;28;20034;-83
2023/05/30 00:21:08;;;;;;;6.43;3.42;;;;;;;;;;5005646;28;20034;-82
2023/05/30 00:23:35;;;;;;;5.68;3.50;;;;;;;;;;5006166;28;20543;-82
2023/05/30 00:26:01;;;;;;;5.43;3.47;;;;;;;;;;5009602;28;20038;-83
2023/05/30 00:28:27;;;;;;;6.75;3.67;;;;;;;;;;5013062;28;20518;-83
2023/05/30 00:30:53;;;;;;;5.72;3.60;;;;;;;;;;5006329;28;20042;-82
2023/05/30 00:33:20;;;;;;;6.05;3.97;;;;;;;;;;5011121;28;20042;-82
2023/05/30 00:35:47;;;;;;;6.10;3.50;;;;;;;;;;5011597;28;20042;-82
2023/05/30 00:38:13;;;;;;;6.07;3.80;;;;;;;;;;5011238;28;20034;-82
2023/05/30 00:40:38;;;;;;;6.18;3.83;;;;;;;;;;5012517;28;20404;-82
2023/05/30 00:43:04;;;;;;;5.07;3.20;;;;;;;;;;5013365;28;20057;-82
2023/05/30 00:45:29;;;;;;;7.13;3.72;;;;;;;;;;5013004;28;20508;-82
2023/05/30 00:47:55;;;;;;;6.40;3.50;;;;;;;;;;4999134;28;20044;-82
2023/05/30 00:50:21;;;;;;;6.25;3.53;;;;;;;;;;5011222;28;20030;-82
2023/05/30 00:52:48;;;;;;;6.32;3.63;;;;;;;;;;5003067;28;20042;-82
2023/05/30 00:55:15;;;;;;;6.20;3.63;;;;;;;;;;4995813;28;20471;-82
2023/05/30 00:57:42;;;;;;;5.38;3.60;;;;;;;;;;5012260;28;20042;-82
2023/05/30 01:00:10;;;;;;;5.72;3.75;;;;;;;;;;5009732;28;20080;-82
2023/05/30 01:02:38;;;;;;;10.15;3.95;;;;;;;;;;5007532;28;20041;-82
2023/05/30 01:05:04;;;;;;;6.80;3.55;;;;;;;;;;4995988;28;20062;-82
2023/05/30 01:07:29;;;;;;;7.70;3.67;;;;;;;;;;5000870;28;20033;-82
2023/05/30 01:09:55;;;;;;;6.60;3.72;;;;;;;;;;5001554;28;20132;-82
2023/05/30 01:12:37;;;;;;;7.22;4.22;;;;;;;;;;5012218;28;20041;-82
2023/05/30 01:15:27;;;;;;;7.07;3.70;;;;;;;;;;5009021;28;20065;-82
2023/05/30 01:18:01;;;;;;;6.15;3.70;;;;;;;;;;5012709;28;20025;-82
2023/05/30 01:20:32;;;;;;;7.22;3.65;;;;;;;;;;4997991;28;20034;-82
2023/05/30 01:23:18;;;;;;;6.45;4.05;;;;;;;;;;5009559;28;20058;-82
2023/05/30 01:25:57;;;;;;;7.82;3.80;;;;;;;;;;5006243;28;20064;-82
2023/05/30 01:28:24;;;;;;;6.18;3.78;;;;;;;;;;5011319;28;20033;-82
2023/05/30 01:30:53;;;;;;;7.57;4.18;;;;;;;;;;5008702;28;20377;-82
2023/05/30 01:33:21;;;;;;;9.60;3.80;;;;;;;;;;5015757;28;20034;-82
2023/05/30 01:35:47;;;;;;;11.18;3.90;;;;;;;;;;5009021;28;20034;-82
2023/05/30 01:38:14;;;;;;;6.43;3.80;;;;;;;;;;5000866;28;20072;-82
2023/05/30 01:40:42;;;;;;;5.95;3.90;;;;;;;;;;5014570;28;20038;-82
2023/05/30 01:43:26;;;;;;;10.88;3.92;;;;;;;;;;5015327;28;20038;-82
2023/05/30 01:46:19;;;;;;;7.57;3.53;;;;;;;;;;4998133;28;20471;-82
2023/05/30 01:48:46;;;;;;;6.13;3.60;;;;;;;;;;5013078;28;20030;-82
2023/05/30 01:51:15;;;;;;;8.07;4.05;;;;;;;;;;4997566;28;20044;-82
2023/05/30 01:53:47;;;;;;;8.95;4.15;;;;;;;;;;5013668;28;20034;-82
2023/05/30 01:56:15;;;;;;;5.28;3.58;;;;;;;;;;5002592;28;20550;-82
2023/05/30 01:58:42;;;;;;;6.97;3.42;;;;;;;;;;5020644;28;20042;-82
2023/05/30 02:01:08;;;;;;;6.10;4.07;;;;;;;;;;5014701;28;20038;-82
2023/05/30 02:03:34;;;;;;;7.30;3.70;;;;;;;;;;5011986;28;20049;-82
2023/05/30 02:06:00;;;;;;;6.13;3.90;;;;;;;;;;5015691;28;20026;-82
2023/05/30 02:08:27;;;;;;;5.60;3.88;;;;;;;;;;5011969;28;20038;-82
2023/05/30 02:10:52;;;;;;;6.07;3.60;;;;;;;;;;4999348;28;20038;-82
2023/05/30 02:13:18;;;;;;;6.57;3.60;;;;;;;;;;5002353;28;20610;-81
2023/05/30 02:15:44;;;;;;;13.35;4.28;;;;;;;;;;5006340;28;20053;-81
2023/05/30 02:18:10;;;;;;;6.53;4.05;;;;;;;;;;5014337;28;20064;-81
2023/05/30 02:20:36;;;;;;;7.05;4.07;;;;;;;;;;5014803;28;20097;-82
2023/05/30 02:23:02;;;;;;;7.57;3.83;;;;;;;;;;5002650;28;20519;-82
2023/05/30 02:25:28;;;;;;;6.55;3.78;;;;;;;;;;5000398;28;20042;-82
2023/05/30 02:27:53;;;;;;;6.20;3.80;;;;;;;;;;4996947;28;20037;-81
2023/05/30 02:30:19;;;;;;;9.15;3.60;;;;;;;;;;5013369;28;20160;-81
2023/05/30 02:32:44;;;;;;;6.50;4.10;;;;;;;;;;5014613;28;20116;-81
2023/05/30 02:35:10;;;;;;;7.90;4.20;;;;;;;;;;5011936;28;20369;-81
2023/05/30 02:37:36;;;;;;;7.55;4.20;;;;;;;;;;4995676;28;20072;-81
2023/05/30 02:40:04;;;;;;;9.20;4.10;;;;;;;;;;5012384;28;20030;-84
2023/05/30 02:42:30;;;;;;;7.40;3.95;;;;;;;;;;5013566;28;20395;-84
2023/05/30 02:44:56;;;;;;;7.38;3.85;;;;;;;;;;5012567;28;20499;-84
2023/05/30 02:47:21;;;;;;;8.57;3.92;;;;;;;;;;5010570;28;20213;-81
2023/05/30 02:49:47;;;;;;;9.07;4.00;;;;;;;;;;4998559;28;20042;-83
2023/05/30 02:52:14;;;;;;;7.47;4.00;;;;;;;;;;5002267;28;20502;-82
2023/05/30 02:54:49;;;;;;;6.43;4.18;;;;;;;;;;5011628;28;20387;-83
2023/05/30 02:57:33;;;;;;;6.63;4.43;;;;;;;;;;4999904;28;20041;-82
2023/05/30 03:00:06;;;;;;;7.82;4.20;;;;;;;;;;4996701;28;20037;-82
2023/05/30 03:02:31;;;;;;;7.15;4.20;;;;;;;;;;5011968;28;20034;-83
2023/05/30 03:04:59;;;;;;;8.38;3.80;;;;;;;;;;4995901;28;20141;-83
2023/05/30 03:07:26;;;;;;;8.73;4.10;;;;;;;;;;5012240;28;20580;-83
2023/05/30 03:09:52;;;;;;;8.40;4.00;;;;;;;;;;4997093;28;20101;-84
2023/05/30 03:12:21;;;;;;;7.47;4.10;;;;;;;;;;5009581;28;20121;-83
2023/05/30 03:14:47;;;;;;;7.95;4.60;;;;;;;;;;4996882;28;20130;-82
2023/05/30 03:17:14;;;;;;;7.90;3.92;;;;;;;;;;5001007;28;20076;-82
2023/05/30 03:19:39;;;;;;;6.70;3.90;;;;;;;;;;5012113;28;20026;-83
2023/05/30 03:22:08;;;;;;;9.00;4.30;;;;;;;;;;5013142;28;20501;-83
2023/05/30 03:24:33;;;;;;;7.47;3.70;;;;;;;;;;4993904;28;20061;-83
2023/05/30 03:27:00;;;;;;;7.07;3.72;;;;;;;;;;5009020;28;20112;-83
2023/05/30 03:29:27;;;;;;;7.75;4.13;;;;;;;;;;5000015;28;20034;-83
2023/05/30 03:31:52;;;;;;;8.25;3.78;;;;;;;;;;5003471;28;20038;-83
2023/05/30 03:34:18;;;;;;;6.35;4.15;;;;;;;;;;5007346;28;20029;-82
2023/05/30 03:36:45;;;;;;;7.53;3.92;;;;;;;;;;5010831;28;20058;-83
2023/05/30 03:39:12;;;;;;;5.78;3.65;;;;;;;;;;4999100;28;20038;-82
2023/05/30 03:41:39;;;;;;;7.15;4.13;;;;;;;;;;5010792;28;20045;-83
2023/05/30 03:44:04;;;;;;;6.28;3.90;;;;;;;;;;5002025;28;20511;-84
2023/05/30 03:46:31;;;;;;;6.57;3.78;;;;;;;;;;5011010;28;20030;-83
2023/05/30 03:48:57;;;;;;;8.15;4.00;;;;;;;;;;5009818;28;20117;-83
2023/05/30 03:51:23;;;;;;;7.97;4.30;;;;;;;;;;5009725;28;20121;-82
2023/05/30 03:53:48;;;;;;;8.55;4.38;;;;;;;;;;4996337;28;20061;-81
2023/05/30 03:56:14;;;;;;;8.90;4.35;;;;;;;;;;5008777;28;20484;-82
2023/05/30 03:58:40;;;;;;;9.18;3.92;;;;;;;;;;5009486;28;20364;-81
2023/05/30 04:01:05;;;;;;;7.10;4.07;;;;;;;;;;5009854;28;20037;-81
2023/05/30 04:03:30;;;;;;;7.15;4.30;;;;;;;;;;5006756;28;20038;-81
2023/05/30 04:05:58;;;;;;;7.85;4.18;;;;;;;;;;5007932;28;20045;-82
2023/05/30 04:08:24;;;;;;;7.75;4.50;;;;;;;;;;5007847;28;20099;-82
2023/05/30 04:10:50;;;;;;;7.90;4.60;;;;;;;;;;5002219;28;20044;-82
2023/05/30 04:13:15;;;;;;;8.43;4.38;;;;;;;;;;5006969;28;20030;-82
2023/05/30 04:15:43;;;;;;;6.07;3.97;;;;;;;;;;5006238;28;20121;-82
2023/05/30 04:18:08;;;;;;;11.93;4.80;;;;;;;;;;5007495;28;20109;-81
2023/05/30 04:20:34;;;;;;;9.13;3.83;;;;;;;;;;4998285;28;20030;-81
2023/05/30 04:22:59;;;;;;;6.00;3.72;;;;;;;;;;4992027;28;20455;-81
2023/05/30 04:25:25;;;;;;;7.13;4.55;;;;;;;;;;5008984;28;20037;-82
2023/05/30 04:27:50;;;;;;;9.07;4.03;;;;;;;;;;5006975;28;20030;-82
2023/05/30 04:30:18;;;;;;;5.68;3.58;;;;;;;;;;5007065;28;20041;-82
2023/05/30 04:32:44;;;;;;;8.23;4.32;;;;;;;;;;5007770;28;20038;-82
2023/05/30 04:35:13;;;;;;;9.05;4.35;;;;;;;;;;5001165;28;20030;-81
2023/05/30 04:37:43;;;;;;;8.65;4.00;;;;;;;;;;5008801;28;20033;-82
2023/05/30 04:40:13;;;;;;;6.78;4.30;;;;;;;;;;5007764;28;20040;-82
2023/05/30 04:42:42;;;;;;;6.68;4.15;;;;;;;;;;4996160;28;20065;-82
2023/05/30 04:45:08;;;;;;;10.23;4.20;;;;;;;;;;4993226;28;20034;-83
2023/05/30 04:47:34;;;;;;;7.07;4.40;;;;;;;;;;4992892;28;20426;-83
2023/05/30 04:50:01;;;;;;;7.03;4.60;;;;;;;;;;5009599;28;20032;-83
2023/05/30 04:52:27;;;;;;;6.25;4.13;;;;;;;;;;4994373;28;20088;-82
2023/05/30 04:54:55;;;;;;;8.90;4.43;;;;;;;;;;4991632;28;20070;-83
2023/05/30 04:57:21;;;;;;;6.35;4.60;;;;;;;;;;5013384;28;20057;-83
2023/05/30 04:59:46;;;;;;;8.35;4.25;;;;;;;;;;5009847;28;20053;-83
2023/05/30 05:02:12;;;;;;;6.85;4.15;;;;;;;;;;5010303;28;20026;-83
2023/05/30 05:04:38;;;;;;;8.60;4.60;;;;;;;;;;5010236;28;20508;-83
2023/05/30 05:07:04;;;;;;;8.38;4.97;;;;;;;;;;5003420;28;20040;-82
2023/05/30 05:09:29;;;;;;;7.43;4.13;;;;;;;;;;4999381;28;20468;-83
2023/05/30 05:11:56;;;;;;;9.15;4.40;;;;;;;;;;5004827;28;20034;-82
2023/05/30 05:14:22;;;;;;;8.02;4.70;;;;;;;;;;5007988;28;20030;-82
2023/05/30 05:16:48;;;;;;;7.25;4.53;;;;;;;;;;5010751;28;20049;-83
2023/05/30 05:19:14;;;;;;;7.90;4.45;;;;;;;;;;5011386;28;20045;-83
2023/05/30 05:21:39;;;;;;;6.95;4.40;;;;;;;;;;4999392;28;20029;-83
2023/05/30 05:24:05;;;;;;;7.88;3.97;;;;;;;;;;5002610;28;20499;-83
2023/05/30 05:26:30;;;;;;;10.23;4.40;;;;;;;;;;5011907;28;20037;-82
2023/05/30 05:28:56;;;;;;;8.23;4.22;;;;;;;;;;4996327;28;20033;-83
2023/05/30 05:31:22;;;;;;;8.57;3.88;;;;;;;;;;5009485;28;20113;-82
2023/05/30 05:33:48;;;;;;;6.72;3.90;;;;;;;;;;4999235;28;20077;-83
2023/05/30 05:36:14;;;;;;;9.73;5.35;;;;;;;;;;5001095;28;20033;-83
2023/05/30 05:38:39;;;;;;;10.00;4.25;;;;;;;;;;5003955;28;20025;-83
2023/05/30 05:41:05;;;;;;;6.93;3.90;;;;;;;;;;5009636;28;20079;-84
2023/05/30 05:43:30;;;;;;;6.75;4.07;;;;;;;;;;5005998;28;20396;-83
2023/05/30 05:45:56;;;;;;;9.10;3.97;;;;;;;;;;4996914;28;20436;-83
2023/05/30 05:48:22;;;;;;;7.93;3.90;;;;;;;;;;5012039;28;20251;-83
2023/05/30 05:50:47;;;;;;;8.15;3.75;;;;;;;;;;5004497;28;20121;-83
2023/05/30 05:53:13;;;;;;;8.32;4.40;;;;;;;;;;5006550;28;20717;-83
2023/05/30 05:55:38;;;;;;;6.63;3.63;;;;;;;;;;5012781;28;20113;-84
2023/05/30 05:58:04;;;;;;;6.28;3.85;;;;;;;;;;4994449;28;20026;-83
2023/05/30 06:00:30;;;;;;;5.68;3.72;;;;;;;;;;5000291;28;20038;-83
2023/05/30 06:02:56;;;;;;;6.70;4.20;;;;;;;;;;5011345;28;20045;-82
2023/05/30 06:05:21;;;;;;;7.53;4.45;;;;;;;;;;5008355;28;20473;-82
2023/05/30 06:07:47;;;;;;;6.38;4.05;;;;;;;;;;5013455;28;20087;-82
2023/05/30 06:10:12;;;;;;;6.25;3.75;;;;;;;;;;5007046;28;20038;-83
2023/05/30 06:12:38;;;;;;;9.35;4.05;;;;;;;;;;5011879;28;20503;-83
2023/05/30 06:15:05;;;;;;;14.88;4.32;;;;;;;;;;5013557;28;20032;-84
2023/05/30 06:17:31;;;;;;;6.82;4.00;;;;;;;;;;5013616;28;20030;-83
2023/05/30 06:19:56;;;;;;;7.70;3.78;;;;;;;;;;5011468;28;20065;-84
2023/05/30 06:22:21;;;;;;;7.63;4.03;;;;;;;;;;5008499;28;20034;-84
2023/05/30 06:24:48;;;;;;;6.63;3.72;;;;;;;;;;5000264;28;20066;-83
2023/05/30 06:27:14;;;;;;;6.63;4.10;;;;;;;;;;5011263;28;20038;-84
2023/05/30 06:29:41;;;;;;;8.85;4.05;;;;;;;;;;5009027;28;20045;-83
2023/05/30 06:32:08;;;;;;;9.07;4.30;;;;;;;;;;5002258;28;20038;-84
2023/05/30 06:34:33;;;;;;;6.60;4.10;;;;;;;;;;5013452;28;20048;-83
2023/05/30 06:36:59;;;;;;;7.45;3.97;;;;;;;;;;4998801;28;20101;-83
2023/05/30 06:39:25;;;;;;;7.65;4.30;;;;;;;;;;5008944;28;20037;-83
2023/05/30 06:41:51;;;;;;;8.05;4.30;;;;;;;;;;5004340;28;20411;-83
2023/05/30 06:44:34;;;;;;;9.75;3.85;;;;;;;;;;5000037;28;20057;-83
2023/05/30 06:47:00;;;;;;;7.95;4.40;;;;;;;;;;4997617;28;20113;-83
2023/05/30 06:49:25;;;;;;;6.93;4.05;;;;;;;;;;4998175;28;20065;-83
2023/05/30 06:51:51;;;;;;;8.57;4.38;;;;;;;;;;5001148;28;20030;-83
2023/05/30 06:54:17;;;;;;;6.25;4.10;;;;;;;;;;5011783;28;20113;-83
2023/05/30 06:56:42;;;;;;;10.93;4.70;;;;;;;;;;5008675;28;20028;-87
2023/05/30 06:59:08;;;;;;;11.02;4.60;;;;;;;;;;5013046;28;20034;-85
2023/05/30 07:01:33;;;;;;;9.55;4.40;;;;;;;;;;5002520;28;20048;-84
2023/05/30 07:03:58;;;;;;;6.90;4.28;;;;;;;;;;4999248;28;20120;-85
2023/05/30 07:06:25;;;;;;;9.45;4.85;;;;;;;;;;5004247;28;20041;-85
2023/05/30 07:08:50;;;;;;;9.82;4.60;;;;;;;;;;5008369;28;20038;-85
2023/05/30 07:11:16;;;;;;;7.22;4.55;;;;;;;;;;5010793;28;20038;-85
2023/05/30 07:13:41;;;;;;;8.75;4.78;;;;;;;;;;5011564;28;20034;-85
2023/05/30 07:16:07;;;;;;;8.10;4.75;;;;;;;;;;5012999;28;20502;-85
2023/05/30 07:18:32;;;;;;;8.23;4.35;;;;;;;;;;5002615;28;20042;-85
2023/05/30 07:20:57;;;;;;;7.75;4.47;;;;;;;;;;5012306;28;20168;-85
2023/05/30 07:23:23;;;;;;;8.57;4.75;;;;;;;;;;4999416;28;20494;-85
2023/05/30 07:25:48;;;;;;;8.77;4.50;;;;;;;;;;4995880;28;20053;-85
2023/05/30 07:28:14;;;;;;;9.65;4.97;;;;;;;;;;4998545;28;20517;-86
2023/05/30 07:30:39;;;;;;;7.20;4.47;;;;;;;;;;5003318;28;20026;-85
2023/05/30 07:33:05;;;;;;;6.25;4.05;;;;;;;;;;5006617;28;20423;-85
2023/05/30 07:35:30;;;;;;;7.18;4.80;;;;;;;;;;5008650;28;20064;-85
2023/05/30 07:37:56;;;;;;;9.27;4.45;;;;;;;;;;5011070;28;20112;-85
2023/05/30 07:40:21;;;;;;;9.05;4.50;;;;;;;;;;5009454;28;20038;-85
2023/05/30 07:42:47;;;;;;;9.60;4.70;;;;;;;;;;5003911;28;20117;-85
2023/05/30 07:45:16;;;;;;;11.70;4.60;;;;;;;;;;5006663;28;20042;-85
2023/05/30 07:47:42;;;;;;;7.35;4.65;;;;;;;;;;5010673;28;20036;-85
2023/05/30 07:50:08;;;;;;;9.68;4.55;;;;;;;;;;5015190;28;20029;-85
2023/05/30 07:52:35;;;;;;;11.82;4.80;;;;;;;;;;5012013;28;20093;-86
2023/05/30 07:55:00;;;;;;;10.45;4.97;;;;;;;;;;5001157;28;20065;-86
2023/05/30 07:57:26;;;;;;;9.70;4.90;;;;;;;;;;5006590;28;20053;-86
2023/05/30 07:59:51;;;;;;;9.27;4.60;;;;;;;;;;5008928;28;20117;-85
2023/05/30 08:02:18;;;;;;;9.65;4.80;;;;;;;;;;5012720;28;20026;-85
2023/05/30 08:04:43;;;;;;;7.25;4.43;;;;;;;;;;5002762;28;20065;-86
2023/05/30 08:07:09;;;;;;;6.80;4.57;;;;;;;;;;4999425;28;20069;-85
2023/05/30 08:09:36;;;;;;;9.02;5.05;;;;;;;;;;5002927;28;20077;-85
2023/05/30 08:12:05;;;;;;;8.65;4.80;;;;;;;;;;5012439;28;20030;-85
2023/05/30 08:14:34;;;;;;;10.73;4.90;;;;;;;;;;5013729;28;20038;-85
2023/05/30 08:17:01;;;;;;;9.35;4.85;;;;;;;;;;5003177;28;20030;-85
2023/05/30 08:19:27;;;;;;;8.20;5.20;;;;;;;;;;5002293;28;20042;-86
2023/05/30 08:21:52;;;;;;;8.30;5.15;;;;;;;;;;5006679;28;20043;-85
2023/05/30 08:24:18;;;;;;;12.48;5.43;;;;;;;;;;5006633;28;20041;-85
2023/05/30 08:26:44;;;;;;;7.40;4.90;;;;;;;;;;4999084;28;20029;-85
2023/05/30 08:29:10;;;;;;;12.38;4.90;;;;;;;;;;4995585;28;20034;-84
2023/05/30 08:31:35;;;;;;;10.93;4.80;;;;;;;;;;5009547;28;20076;-85
2023/05/30 08:34:04;;;;;;;10.00;5.10;;;;;;;;;;5006579;28;20124;-86
2023/05/30 08:36:31;;;;;;;8.00;4.90;;;;;;;;;;5002714;28;20404;-85
2023/05/30 08:38:57;;;;;;;9.93;5.10;;;;;;;;;;4998159;28;20038;-85
2023/05/30 08:41:22;;;;;;;7.28;4.80;;;;;;;;;;4994713;28;20030;-84
2023/05/30 08:43:49;;;;;;;8.27;4.63;;;;;;;;;;4997132;28;20045;-85
2023/05/30 08:46:16;;;;;;;7.68;4.63;;;;;;;;;;5011514;28;20061;-85
2023/05/30 08:48:42;;;;;;;9.82;4.90;;;;;;;;;;5004581;28;20060;-85
2023/05/30 08:51:12;;;;;;;9.27;4.30;;;;;;;;;;5011824;28;20105;-85
2023/05/30 08:53:45;;;;;;;11.77;4.28;;;;;;;;;;5011669;28;20026;-84
2023/05/30 08:56:34;;;;;;;9.10;4.80;;;;;;;;;;4996990;28;20053;-84
2023/05/30 08:59:02;;;;;;;8.35;4.72;;;;;;;;;;5005921;28;20057;-85
2023/05/30 09:01:29;;;;;;;8.18;4.57;;;;;;;;;;5008856;28;20058;-84
2023/05/30 09:03:56;;;;;;;8.48;4.82;;;;;;;;;;5007296;28;20048;-87
2023/05/30 09:06:22;;;;;;;11.40;5.15;;;;;;;;;;5010852;28;20034;-85
2023/05/30 09:08:51;;;;;;;7.85;5.57;;;;;;;;;;5008063;28;20049;-84
2023/05/30 09:11:18;;;;;;;7.30;5.18;;;;;;;;;;5006414;28;20391;-84
2023/05/30 09:13:45;;;;;;;10.13;5.15;;;;;;;;;;5001224;28;20431;-84
2023/05/30 09:16:11;;;;;;;7.35;5.10;;;;;;;;;;5010867;28;20052;-84
2023/05/30 09:18:37;;;;;;;10.30;5.47;;;;;;;;;;5010847;28;20030;-86
2023/05/30 09:21:03;;;;;;;9.18;5.35;;;;;;;;;;4996843;28;20048;-86
2023/05/30 09:23:29;;;;;;;8.25;5.50;;;;;;;;;;4998328;28;20061;-85
2023/05/30 09:25:57;;;;;;;10.43;5.50;;;;;;;;;;5003090;28;20038;-87
2023/05/30 09:28:25;;;;;;;10.43;5.60;;;;;;;;;;5006232;28;20045;-86
2023/05/30 09:30:57;;;;;;;12.10;5.22;;;;;;;;;;5011270;28;20068;-86
2023/05/30 09:33:24;;;;;;;12.73;5.32;;;;;;;;;;5009468;28;20109;-86
2023/05/30 09:35:53;;;;;;;7.47;4.90;;;;;;;;;;5010713;28;20133;-86
2023/05/30 09:38:22;;;;;;;9.38;5.43;;;;;;;;;;5002758;28;20030;-86
2023/05/30 09:40:55;;;;;;;9.80;5.20;;;;;;;;;;5005265;28;20041;-87
2023/05/30 09:43:34;;;;;;;9.43;4.68;;;;;;;;;;5008079;28;20022;-85
2023/05/30 09:46:05;;;;;;;8.35;5.30;;;;;;;;;;5008116;28;20050;-88
2023/05/30 09:48:32;;;;;;;8.93;5.00;;;;;;;;;;5006058;28;20029;-88
2023/05/30 09:51:02;;;;;;;8.52;4.90;;;;;;;;;;5008952;28;20042;-88
2023/05/30 09:53:29;;;;;;;8.32;4.63;;;;;;;;;;5013828;28;20109;-88
2023/05/30 09:55:55;;;;;;;10.07;5.28;;;;;;;;;;5018215;28;20060;-88
2023/05/30 09:58:22;;;;;;;6.43;4.40;;;;;;;;;;5020397;28;20034;-87
2023/05/30 10:00:56;;;;;;;6.93;4.78;;;;;;;;;;5020483;28;20121;-87
2023/05/30 10:03:43;;;;;;;11.05;5.05;;;;;;;;;;5019935;28;20042;-86
2023/05/30 10:06:15;;;;;;;9.60;4.82;;;;;;;;;;5011187;28;20040;-87
2023/05/30 10:08:44;;;;;;;9.63;4.63;;;;;;;;;;5018181;28;20450;-87
2023/05/30 10:11:10;;;;;;;9.13;4.65;;;;;;;;;;5012496;28;20034;-87
2023/05/30 10:13:37;;;;;;;7.30;4.60;;;;;;;;;;5016866;28;20550;-88
2023/05/30 10:16:05;;;;;;;7.78;5.05;;;;;;;;;;5017908;28;20065;-88
2023/05/30 10:18:32;;;;;;;6.85;4.28;;;;;;;;;;5014939;28;20038;-88
2023/05/30 10:20:59;;;;;;;8.30;4.47;;;;;;;;;;5017178;28;20029;-89
2023/05/30 10:23:26;;;;;;;7.65;4.57;;;;;;;;;;5016901;28;20034;-89
2023/05/30 10:25:54;;;;;;;7.28;4.45;;;;;;;;;;5004113;28;20129;-88
2023/05/30 10:28:26;;;;;;;9.57;4.57;;;;;;;;;;5013441;28;20041;-87
2023/05/30 10:30:52;;;;;;;6.97;4.25;;;;;;;;;;5013373;28;20021;-88
2023/05/30 10:33:20;;;;;;;6.63;3.92;;;;;;;;;;5017378;28;20060;-87
2023/05/30 10:35:46;;;;;;;8.68;4.45;;;;;;;;;;5015524;28;20061;-87
2023/05/30 10:38:13;;;;;;;9.10;4.60;;;;;;;;;;5004064;28;20038;-87
2023/05/30 10:41:00;;;;;;;6.15;4.35;;;;;;;;;;5020369;28;20037;-88
2023/05/30 10:44:02;;;;;;;6.63;4.40;;;;;;;;;;5009030;28;20117;-87
2023/05/30 10:46:55;;;;;;;5.75;3.85;;;;;;;;;;5017825;28;20030;-87
2023/05/30 10:49:24;;;;;;;5.22;3.80;;;;;;;;;;5016871;28;20109;-87
2023/05/30 10:52:01;;;;;;;6.75;4.25;;;;;;;;;;5003999;28;20129;-87
2023/05/30 10:54:30;;;;;;;6.22;3.90;;;;;;;;;;5011567;28;20072;-87
2023/05/30 10:56:58;;;;;;;7.80;3.72;;;;;;;;;;5008435;28;20023;-87
2023/05/30 10:59:24;;;;;;;7.70;4.03;;;;;;;;;;5003692;28;20257;-87
2023/05/30 11:02:06;;;;;;;9.00;3.72;;;;;;;;;;5000920;28;20476;-87
2023/05/30 11:04:38;;;;;;;8.38;3.40;;;;;;;;;;5003635;28;20034;-87
2023/05/30 11:07:06;;;;;;;9.63;3.60;;;;;;;;;;5009373;28;20042;-87
2023/05/30 11:09:32;;;;;;;6.45;3.22;;;;;;;;;;5016852;28;20033;-88
2023/05/30 11:12:01;;;;;;;7.22;3.28;;;;;;;;;;5013499;28;20029;-88
2023/05/30 11:14:32;;;;;;;7.95;3.30;;;;;;;;;;5010717;28;20365;-88
2023/05/30 11:17:03;;;;;;;8.00;3.00;;;;;;;;;;5002379;28;20482;-87
2023/05/30 11:19:45;;;;;;;5.35;3.00;;;;;;;;;;4997373;28;20040;-87
2023/05/30 11:22:15;;;;;;;6.53;2.90;;;;;;;;;;5013259;28;20088;-88
2023/05/30 11:24:41;;;;;;;8.57;3.13;;;;;;;;;;5016474;28;20088;-87
2023/05/30 11:27:12;;;;;;;6.43;3.00;;;;;;;;;;5007184;28;20349;-87
2023/05/30 11:29:42;;;;;;;9.13;3.00;;;;;;;;;;5016150;28;20037;-87
2023/05/30 11:32:08;;;;;;;6.72;2.80;;;;;;;;;;5007784;28;20081;-87
2023/05/30 11:34:35;;;;;;;7.65;3.22;;;;;;;;;;5015608;28;20034;-87
2023/05/30 11:37:02;;;;;;;5.13;3.30;;;;;;;;;;5018327;28;20026;-87
2023/05/30 11:39:30;;;;;;;4.63;2.78;;;;;;;;;;5000128;28;20031;-88
2023/05/30 11:41:56;;;;;;;11.65;2.80;;;;;;;;;;5001596;28;20059;-88
2023/05/30 11:44:23;;;;;;;5.07;3.20;;;;;;;;;;5006303;28;20123;-88
2023/05/30 11:47:02;;;;;;;7.45;3.10;;;;;;;;;;5015025;28;20122;-87
2023/05/30 11:49:28;;;;;;;4.78;3.00;;;;;;;;;;5010185;28;20036;-87
2023/05/30 11:51:53;;;;;;;7.72;2.90;;;;;;;;;;5013350;28;20053;-87
2023/05/30 11:54:19;;;;;;;6.22;3.00;;;;;;;;;;5000313;28;20026;-87
2023/05/30 11:56:47;;;;;;;8.20;2.90;;;;;;;;;;5005780;28;20042;-88
2023/05/30 11:59:19;;;;;;;5.95;3.00;;;;;;;;;;5016514;28;20030;-87
2023/05/30 12:01:56;;;;;;;5.23;2.80;;;;;;;;;;5010059;28;20389;-88
2023/05/30 12:04:23;;;;;;;14.27;4.55;;;;;;;;;;5013871;28;20045;-89
2023/05/30 12:06:48;;;;;;;6.13;3.10;;;;;;;;;;5013472;28;20026;-88
2023/05/30 12:09:14;;;;;;;6.30;2.65;;;;;;;;;;5002825;28;20034;-88
2023/05/30 12:11:53;;;;;;;4.70;2.85;;;;;;;;;;5007887;28;20033;-88
2023/05/30 12:14:19;;;;;;;7.50;2.92;;;;;;;;;;5003312;28;20387;-88
2023/05/30 12:16:44;;;;;;;4.68;2.95;;;;;;;;;;4999494;28;20484;-87
2023/05/30 12:19:10;;;;;;;4.97;3.13;;;;;;;;;;5001177;28;20492;-87
2023/05/30 12:21:36;;;;;;;5.68;3.20;;;;;;;;;;4999359;28;20049;-87
2023/05/30 12:24:09;;;;;;;10.13;3.13;;;;;;;;;;5008258;28;20034;-87
2023/05/30 12:26:35;;;;;;;4.63;3.00;;;;;;;;;;5014464;28;20041;-87
2023/05/30 12:29:07;;;;;;;5.60;3.10;;;;;;;;;;5014912;28;20030;-88
2023/05/30 12:31:33;;;;;;;4.93;2.97;;;;;;;;;;5001122;28;20046;-88
2023/05/30 12:34:02;;;;;;;7.28;3.22;;;;;;;;;;5002540;28;20092;-88
2023/05/30 12:36:27;;;;;;;8.32;3.10;;;;;;;;;;5008144;28;20042;-88
2023/05/30 12:38:57;;;;;;;10.98;3.20;;;;;;;;;;5004474;28;20480;-87
2023/05/30 12:41:30;;;;;;;5.30;3.20;;;;;;;;;;5015405;28;20080;-87
2023/05/30 12:43:56;;;;;;;6.35;2.90;;;;;;;;;;5016236;28;20102;-87
2023/05/30 12:46:25;;;;;;;9.05;3.15;;;;;;;;;;5012091;28;20038;-86
2023/05/30 12:48:51;;;;;;;7.10;3.08;;;;;;;;;;5008514;28;20038;-87
2023/05/30 12:51:17;;;;;;;7.75;3.22;;;;;;;;;;5007364;28;20041;-87
2023/05/30 12:53:42;;;;;;;9.40;3.50;;;;;;;;;;5002677;28;20042;-88
2023/05/30 12:56:08;;;;;;;5.88;3.25;;;;;;;;;;4999655;28;20461;-88
2023/05/30 12:58:33;;;;;;;8.20;2.90;;;;;;;;;;5003418;28;20026;-87
2023/05/30 13:00:59;;;;;;;7.28;2.90;;;;;;;;;;5009298;28;20028;-87
2023/05/30 13:03:24;;;;;;;6.35;3.20;;;;;;;;;;5018390;28;20687;-87
2023/05/30 13:05:50;;;;;;;5.32;3.35;;;;;;;;;;5016970;28;20033;-87
2023/05/30 13:08:15;;;;;;;9.57;3.22;;;;;;;;;;5014783;28;20026;-88
2023/05/30 13:10:41;;;;;;;6.68;2.90;;;;;;;;;;5003477;28;20045;-88
2023/05/30 13:13:06;;;;;;;7.32;3.10;;;;;;;;;;5005811;28;20050;-88
2023/05/30 13:15:32;;;;;;;5.30;3.35;;;;;;;;;;5015429;28;20041;-87
2023/05/30 13:17:57;;;;;;;7.28;3.00;;;;;;;;;;5015184;28;20057;-88
2023/05/30 13:20:23;;;;;;;6.80;3.10;;;;;;;;;;5016058;28;20499;-88
2023/05/30 13:22:48;;;;;;;5.72;2.90;;;;;;;;;;5001654;28;20034;-87
2023/05/30 13:25:14;;;;;;;4.93;2.95;;;;;;;;;;5003297;28;20057;-88
2023/05/30 13:27:39;;;;;;;8.75;2.92;;;;;;;;;;5005686;28;20022;-90
2023/05/30 13:30:06;;;;;;;4.45;3.10;;;;;;;;;;5008507;28;20038;-89
2023/05/30 13:32:31;;;;;;;6.32;2.97;;;;;;;;;;5011737;28;20033;-88
2023/05/30 13:34:57;;;;;;;7.15;3.03;;;;;;;;;;5010189;28;20030;-87
2023/05/30 13:37:22;;;;;;;5.13;2.75;;;;;;;;;;5005775;28;20175;-87
2023/05/30 13:39:48;;;;;;;5.45;2.80;;;;;;;;;;5009261;28;20034;-88
2023/05/30 13:42:13;;;;;;;4.95;2.80;;;;;;;;;;5013841;28;20038;-87
2023/05/30 13:44:39;;;;;;;5.50;2.92;;;;;;;;;;5015645;28;20014;-88
2023/05/30 13:47:05;;;;;;;6.55;3.00;;;;;;;;;;5005458;28;20133;-89
2023/05/30 13:49:35;;;;;;;4.50;2.95;;;;;;;;;;5002646;28;20036;-88
2023/05/30 13:52:03;;;;;;;6.07;3.00;;;;;;;;;;5007619;28;20092;-88
2023/05/30 13:54:28;;;;;;;7.43;2.90;;;;;;;;;;5017856;28;20686;-88
2023/05/30 13:56:54;;;;;;;4.90;2.63;;;;;;;;;;5016193;28;20069;-87
2023/05/30 13:59:19;;;;;;;6.50;2.97;;;;;;;;;;5018098;28;20042;-87
2023/05/30 14:01:48;;;;;;;6.40;3.10;;;;;;;;;;5005824;28;20042;-88
2023/05/30 14:04:13;;;;;;;7.68;2.90;;;;;;;;;;5003156;28;20032;-88
2023/05/30 14:06:39;;;;;;;4.50;2.80;;;;;;;;;;5017047;28;20045;-88
2023/05/30 14:09:04;;;;;;;6.22;2.90;;;;;;;;;;5017138;28;20595;-87
2023/05/30 14:11:30;;;;;;;5.70;2.83;;;;;;;;;;5012965;28;20050;-88
2023/05/30 14:13:56;;;;;;;6.13;2.88;;;;;;;;;;5012034;28;20037;-88
2023/05/30 14:16:21;;;;;;;5.75;2.85;;;;;;;;;;5014925;28;20053;-88
2023/05/30 14:18:47;;;;;;;4.65;3.10;;;;;;;;;;5013727;28;20152;-87
2023/05/30 14:21:13;;;;;;;5.03;2.90;;;;;;;;;;5015750;28;20038;-88
2023/05/30 14:23:39;;;;;;;4.47;2.90;;;;;;;;;;5007952;28;20034;-88
2023/05/30 14:26:04;;;;;;;5.82;2.80;;;;;;;;;;5019630;28;20042;-88
2023/05/30 14:28:31;;;;;;;6.45;3.00;;;;;;;;;;5011990;28;20046;-87
2023/05/30 14:30:57;;;;;;;6.13;3.08;;;;;;;;;;5017168;28;20065;-87
2023/05/30 14:33:22;;;;;;;6.40;3.08;;;;;;;;;;5011813;28;20033;-87
2023/05/30 14:35:48;;;;;;;7.68;2.90;;;;;;;;;;5013806;28;20124;-86
2023/05/30 14:38:14;;;;;;;8.35;3.10;;;;;;;;;;5004457;28;20038;-87
2023/05/30 14:40:40;;;;;;;7.13;3.05;;;;;;;;;;5005571;28;20058;-85
2023/05/30 14:43:06;;;;;;;7.97;3.53;;;;;;;;;;5015652;28;20065;-87